createdAt,value
2019-04-14T00:01:30.391Z,19.30
2019-04-14T00:04:09.522Z,19.57
2019-04-14T00:06:41.931Z,19.43
2019-04-14T00:09:16.336Z,19.53
2019-04-14T00:11:48.152Z,19.60
2019-04-14T00:14:20.650Z,21.80
2019-04-14T00:16:53.189Z,19.90
2019-04-14T00:19:24.247Z,18.90
2019-04-14T00:21:58.473Z,20.50
2019-04-14T00:24:31.255Z,18.07
2019-04-14T00:27:04.117Z,17.30
2019-04-14T00:29:35.410Z,18.90
2019-04-14T00:32:07.339Z,20.73
2019-04-14T00:34:57.194Z,21.43
2019-04-14T00:37:35.962Z,19.77
2019-04-14T00:40:12.905Z,19.57
2019-04-14T00:42:54.186Z,21.37
2019-04-14T00:45:38.337Z,19.50
2019-04-14T00:48:09.767Z,19.87
2019-04-14T00:50:36.629Z,19.77
2019-04-14T00:53:07.880Z,18.47
2019-04-14T00:55:40.106Z,18.67
2019-04-14T00:58:12.673Z,19.03
2019-04-14T01:00:45.104Z,19.57
2019-04-14T01:03:16.201Z,18.67
2019-04-14T01:05:48.186Z,22.63
2019-04-14T01:08:20.515Z,18.57
2019-04-14T01:10:51.990Z,20.00
2019-04-14T01:13:24.343Z,19.33
2019-04-14T01:16:04.793Z,20.43
2019-04-14T01:18:29.845Z,24.67
2019-04-14T01:21:02.409Z,19.97
2019-04-14T01:23:34.716Z,21.83
2019-04-14T01:26:05.126Z,19.17
2019-04-14T01:28:37.552Z,20.17
2019-04-14T01:31:09.741Z,20.37
2019-04-14T01:33:42.252Z,20.23
2019-04-14T01:36:13.449Z,20.80
2019-04-14T01:38:45.423Z,20.07
2019-04-14T01:41:17.146Z,19.97
2019-04-14T01:43:49.592Z,23.07
2019-04-14T01:46:25.938Z,18.23
2019-04-14T01:48:54.178Z,19.93
2019-04-14T01:51:29.469Z,23.00
2019-04-14T01:54:02.201Z,19.90
2019-04-14T01:56:47.283Z,19.43
2019-04-14T01:59:19.784Z,21.87
2019-04-14T02:01:52.539Z,22.73
2019-04-14T02:04:22.776Z,20.77
2019-04-14T02:06:55.212Z,21.90
2019-04-14T02:09:27.243Z,21.20
2019-04-14T02:11:59.434Z,21.87
2019-04-14T02:14:30.504Z,22.70
2019-04-14T02:17:04.223Z,23.00
2019-04-14T02:19:34.984Z,24.03
2019-04-14T02:22:07.335Z,22.23
2019-04-14T02:24:39.488Z,21.67
2019-04-14T02:27:11.965Z,21.50
2019-04-14T02:29:43.019Z,24.20
2019-04-14T02:32:42.590Z,22.53
2019-04-14T02:35:20.619Z,21.27
2019-04-14T02:40:33.424Z,20.77
2019-04-14T02:42:49.244Z,20.13
2019-04-14T02:45:33.143Z,22.30
2019-04-14T02:48:05.481Z,22.80
2019-04-14T02:50:26.764Z,21.77
2019-04-14T02:55:32.423Z,22.50
2019-04-14T02:58:10.239Z,20.37
2019-04-14T03:00:41.162Z,19.93
2019-04-14T03:03:16.102Z,19.60
2019-04-14T03:13:28.785Z,26.67
2019-04-14T03:16:02.369Z,21.27
2019-04-14T03:18:38.226Z,19.83
2019-04-14T03:21:26.305Z,19.77
2019-04-14T03:24:03.138Z,20.00
2019-04-14T03:26:47.427Z,22.23
2019-04-14T03:29:40.793Z,21.60
2019-04-14T03:34:43.534Z,21.83
2019-04-14T03:42:24.862Z,21.67
2019-04-14T03:47:22.073Z,22.17
2019-04-14T03:49:54.311Z,26.27
2019-04-14T03:52:31.708Z,21.80
2019-04-14T03:54:52.854Z,22.77
2019-04-14T03:57:06.294Z,19.47
2019-04-14T03:59:37.547Z,20.70
2019-04-14T04:02:09.585Z,20.93
2019-04-14T04:04:40.971Z,21.77
2019-04-14T04:07:12.526Z,21.23
2019-04-14T04:09:45.466Z,20.57
2019-04-14T04:12:16.544Z,24.40
2019-04-14T04:14:46.606Z,22.53
2019-04-14T04:17:23.246Z,25.17
2019-04-14T04:20:05.234Z,24.57
2019-04-14T04:22:52.949Z,23.53
2019-04-14T04:25:31.572Z,21.53
2019-04-14T04:28:04.500Z,23.87
2019-04-14T04:30:42.919Z,21.67
2019-04-14T04:33:30.635Z,22.10
2019-04-14T04:36:03.298Z,23.57
2019-04-14T04:38:36.220Z,26.00
2019-04-14T04:41:08.013Z,24.20
2019-04-14T04:43:39.343Z,24.40
2019-04-14T04:46:11.251Z,19.70
2019-04-14T04:48:43.649Z,21.20
2019-04-14T04:51:15.933Z,23.20
2019-04-14T04:53:48.347Z,22.13
2019-04-14T04:56:19.372Z,22.73
2019-04-14T04:58:50.416Z,24.40
2019-04-14T05:01:21.474Z,23.07
2019-04-14T05:03:51.608Z,22.57
2019-04-14T05:07:01.657Z,24.23
2019-04-14T05:09:38.791Z,25.87
2019-04-14T05:12:17.421Z,23.70
2019-04-14T05:14:52.361Z,27.10
2019-04-14T05:17:25.576Z,22.93
2019-04-14T05:19:56.606Z,27.93
2019-04-14T05:22:28.834Z,25.13
2019-04-14T05:24:59.890Z,25.00
2019-04-14T05:27:31.959Z,24.83
2019-04-14T05:30:03.102Z,24.23
2019-04-14T05:32:34.755Z,25.37
2019-04-14T05:35:07.437Z,26.47
2019-04-14T05:37:40.065Z,26.93
2019-04-14T05:40:12.381Z,28.00
2019-04-14T05:42:45.079Z,26.50
2019-04-14T05:45:17.557Z,24.97
2019-04-14T05:47:50.106Z,25.97
2019-04-14T05:50:21.240Z,26.53
2019-04-14T05:52:51.537Z,25.87
2019-04-14T05:55:22.570Z,24.57
2019-04-14T05:57:54.520Z,26.20
2019-04-14T06:00:25.945Z,24.60
2019-04-14T06:02:57.304Z,26.97
2019-04-14T06:05:29.642Z,25.37
2019-04-14T06:08:00.806Z,24.67
2019-04-14T06:10:31.958Z,23.93
2019-04-14T06:13:02.975Z,24.10
2019-04-14T06:15:35.375Z,23.13
2019-04-14T06:18:06.464Z,26.23
2019-04-14T06:20:39.342Z,26.20
2019-04-14T06:23:10.342Z,26.47
2019-04-14T06:25:40.396Z,25.33
2019-04-14T06:28:11.577Z,26.90
2019-04-14T06:30:52.981Z,25.73
2019-04-14T06:33:38.590Z,24.83
2019-04-14T06:36:27.852Z,25.13
2019-04-14T06:39:00.634Z,28.70
2019-04-14T06:41:31.552Z,25.23
2019-04-14T06:44:02.916Z,24.50
2019-04-14T06:46:33.900Z,23.07
2019-04-14T06:49:05.186Z,27.13
2019-04-14T06:51:36.162Z,25.37
2019-04-14T06:54:07.399Z,26.97
2019-04-14T06:56:38.524Z,25.07
2019-04-14T06:59:09.762Z,28.23
2019-04-14T07:01:40.879Z,24.37
2019-04-14T07:04:12.173Z,26.73
2019-04-14T07:06:43.185Z,27.23
2019-04-14T07:09:13.519Z,24.63
2019-04-14T07:11:44.777Z,23.37
2019-04-14T07:14:15.997Z,24.13
2019-04-14T07:16:47.148Z,23.27
2019-04-14T07:19:18.127Z,25.60
2019-04-14T07:21:49.396Z,23.37
2019-04-14T07:24:20.400Z,24.00
2019-04-14T07:26:51.611Z,25.33
2019-04-14T07:29:24.213Z,23.57
2019-04-14T07:31:56.982Z,23.93
2019-04-14T07:34:45.034Z,21.90
2019-04-14T07:37:32.643Z,25.30
2019-04-14T07:40:22.750Z,24.40
2019-04-14T07:43:01.773Z,21.83
2019-04-14T07:45:37.108Z,24.07
2019-04-14T07:48:09.963Z,23.30
2019-04-14T07:50:45.461Z,22.63
2019-04-14T07:53:18.233Z,22.87
2019-04-14T07:55:53.424Z,23.03
2019-04-14T07:58:34.868Z,22.90
2019-04-14T08:01:16.329Z,22.90
2019-04-14T08:03:52.344Z,22.23
2019-04-14T08:06:23.471Z,26.70
2019-04-14T08:08:53.748Z,21.80
2019-04-14T08:11:24.795Z,25.80
2019-04-14T08:13:55.756Z,21.07
2019-04-14T08:16:26.801Z,20.60
2019-04-14T08:18:57.711Z,21.97
2019-04-14T08:21:28.930Z,21.03
2019-04-14T08:24:00.000Z,23.03
2019-04-14T08:26:31.127Z,19.07
2019-04-14T08:29:02.218Z,16.13
2019-04-14T08:31:33.369Z,17.13
2019-04-14T08:34:04.473Z,17.17
2019-04-14T08:36:35.779Z,15.03
2019-04-14T08:39:07.489Z,15.73
2019-04-14T08:41:42.310Z,15.97
2019-04-14T08:44:18.063Z,14.60
2019-04-14T08:47:02.961Z,17.43
2019-04-14T08:49:41.336Z,15.43
2019-04-14T08:52:30.204Z,14.90
2019-04-14T08:55:14.915Z,17.13
2019-04-14T08:57:56.792Z,14.27
2019-04-14T09:00:29.743Z,14.87
2019-04-14T09:03:05.684Z,14.83
2019-04-14T09:05:38.583Z,16.70
2019-04-14T09:08:11.211Z,15.73
2019-04-14T09:10:49.889Z,16.23
2019-04-14T09:13:20.886Z,14.90
2019-04-14T09:15:52.092Z,14.80
2019-04-14T09:18:23.111Z,15.97
2019-04-14T09:20:54.183Z,15.50
2019-04-14T09:23:25.195Z,17.53
2019-04-14T09:25:56.517Z,16.23
2019-04-14T09:28:27.665Z,18.33
2019-04-14T09:30:59.275Z,16.30
2019-04-14T09:33:30.379Z,14.70
2019-04-14T09:36:00.469Z,14.83
2019-04-14T09:38:31.638Z,14.63
2019-04-14T09:41:02.544Z,14.53
2019-04-14T09:43:34.066Z,13.83
2019-04-14T09:46:05.101Z,15.70
2019-04-14T09:48:36.392Z,14.13
2019-04-14T09:51:07.541Z,14.57
2019-04-14T09:53:38.675Z,16.73
2019-04-14T09:56:09.564Z,14.67
2019-04-14T09:58:40.757Z,15.03
2019-04-14T10:01:11.847Z,12.47
2019-04-14T10:03:43.014Z,10.87
2019-04-14T10:06:14.031Z,12.03
2019-04-14T10:08:44.157Z,12.10
2019-04-14T10:11:15.406Z,11.17
2019-04-14T10:13:46.834Z,11.07
2019-04-14T10:16:18.296Z,12.47
2019-04-14T10:18:49.526Z,12.07
2019-04-14T10:21:20.742Z,13.33
2019-04-14T10:23:51.824Z,13.00
2019-04-14T10:26:22.962Z,12.33
2019-04-14T10:28:53.898Z,12.60
2019-04-14T10:31:25.188Z,12.87
2019-04-14T10:33:56.232Z,12.83
2019-04-14T10:36:27.540Z,12.93
2019-04-14T10:38:58.524Z,12.67
2019-04-14T10:41:28.650Z,13.47
2019-04-14T10:44:00.162Z,14.17
2019-04-14T10:46:31.219Z,14.07
2019-04-14T10:49:02.661Z,13.80
2019-04-14T10:51:34.148Z,14.67
2019-04-14T10:54:05.594Z,15.07
2019-04-14T10:56:36.660Z,13.90
2019-04-14T10:59:08.221Z,14.83
2019-04-14T11:01:39.120Z,14.17
2019-04-14T11:04:10.645Z,14.67
2019-04-14T11:06:43.250Z,15.33
2019-04-14T11:09:15.220Z,16.37
2019-04-14T11:11:46.232Z,17.97
2019-04-14T11:14:16.430Z,16.70
2019-04-14T11:16:47.737Z,14.83
2019-04-14T11:19:18.801Z,14.97
2019-04-14T11:21:49.948Z,15.57
2019-04-14T11:24:21.005Z,15.00
2019-04-14T11:26:52.237Z,16.03
2019-04-14T11:29:23.232Z,13.90
2019-04-14T11:31:56.023Z,15.57
2019-04-14T11:34:31.411Z,14.40
2019-04-14T11:37:04.139Z,16.77
2019-04-14T11:39:35.186Z,14.83
2019-04-14T11:42:06.664Z,14.93
2019-04-14T11:44:37.729Z,15.20
2019-04-14T11:47:09.422Z,15.80
2019-04-14T11:49:40.422Z,15.37
2019-04-14T11:52:10.697Z,14.33
2019-04-14T11:54:41.914Z,15.40
2019-04-14T11:57:12.889Z,15.17
2019-04-14T12:00:01.827Z,14.70
2019-04-14T12:02:34.414Z,15.07
2019-04-14T12:05:08.074Z,17.30
2019-04-14T12:07:40.631Z,15.53
2019-04-14T12:10:13.259Z,14.40
2019-04-14T12:12:44.310Z,15.60
2019-04-14T12:15:16.584Z,15.83
2019-04-14T12:17:47.816Z,14.27
2019-04-14T12:20:19.315Z,15.60
2019-04-14T12:22:51.316Z,15.20
2019-04-14T12:25:22.881Z,14.43
2019-04-14T12:27:53.775Z,16.03
2019-04-14T12:30:24.492Z,15.40
2019-04-14T12:32:55.713Z,21.67
2019-04-14T12:35:26.719Z,14.93
2019-04-14T12:37:57.960Z,14.83
2019-04-14T12:40:28.920Z,14.10
2019-04-14T12:43:04.577Z,14.53
2019-04-14T12:45:53.449Z,13.60
2019-04-14T12:48:30.095Z,16.10
2019-04-14T12:51:20.515Z,16.03
2019-04-14T12:53:51.787Z,14.13
2019-04-14T12:56:24.401Z,14.13
2019-04-14T12:58:59.806Z,14.23
2019-04-14T13:01:44.381Z,13.10
2019-04-14T13:04:15.662Z,14.07
2019-04-14T13:06:46.666Z,14.17
2019-04-14T13:09:18.169Z,14.10
2019-04-14T13:11:49.270Z,13.27
2019-04-14T13:14:20.588Z,14.33
2019-04-14T13:16:51.704Z,14.00
2019-04-14T13:19:22.170Z,13.67
2019-04-14T13:21:53.608Z,13.77
2019-04-14T13:24:24.658Z,13.67
2019-04-14T13:26:59.441Z,13.50
2019-04-14T13:29:30.517Z,13.97
2019-04-14T13:32:01.795Z,13.07
2019-04-14T13:34:32.789Z,12.53
2019-04-14T13:37:04.112Z,12.23
2019-04-14T13:39:35.557Z,13.27
2019-04-14T13:42:08.008Z,12.73
2019-04-14T13:44:39.429Z,13.43
2019-04-14T13:47:11.331Z,11.47
2019-04-14T13:49:46.778Z,10.60
2019-04-14T13:52:19.516Z,12.33
2019-04-14T13:54:53.206Z,11.43
2019-04-14T13:57:23.776Z,11.13
2019-04-14T13:59:55.032Z,9.90
2019-04-14T14:02:26.167Z,10.07
2019-04-14T14:04:57.374Z,8.90
2019-04-14T14:07:28.338Z,8.87
2019-04-14T14:09:59.418Z,8.60
2019-04-14T14:12:32.017Z,7.87
2019-04-14T14:15:14.104Z,7.33
2019-04-14T14:17:49.573Z,7.93
2019-04-14T14:20:28.366Z,8.73
2019-04-14T14:23:15.977Z,7.67
2019-04-14T14:26:04.682Z,7.50
2019-04-14T14:28:38.483Z,8.23
2019-04-14T14:31:08.671Z,6.60
2019-04-14T14:33:39.724Z,7.50
2019-04-14T14:36:10.950Z,7.10
2019-04-14T14:38:41.838Z,10.73
2019-04-14T14:41:13.660Z,9.43
2019-04-14T14:43:44.890Z,7.47
2019-04-14T14:46:31.424Z,6.87
2019-04-14T14:49:20.229Z,7.63
2019-04-14T14:51:52.154Z,7.00
2019-04-14T14:54:23.367Z,6.93
2019-04-14T14:56:54.423Z,6.57
2019-04-14T14:59:25.712Z,6.63
2019-04-14T15:01:56.852Z,6.33
2019-04-14T15:04:28.234Z,6.33
2019-04-14T15:06:59.444Z,6.13
2019-04-14T15:09:30.780Z,7.17
2019-04-14T15:12:01.844Z,6.53
2019-04-14T15:14:33.344Z,6.60
2019-04-14T15:17:04.519Z,5.67
2019-04-14T15:19:36.139Z,6.90
2019-04-14T15:22:07.199Z,6.63
2019-04-14T15:24:37.488Z,7.93
2019-04-14T15:27:08.687Z,6.77
2019-04-14T15:29:39.707Z,6.37
2019-04-14T15:32:10.844Z,8.60
2019-04-14T15:34:41.823Z,5.73
2019-04-14T15:37:12.850Z,6.27
2019-04-14T15:39:43.855Z,6.20
2019-04-14T15:42:15.120Z,7.27
2019-04-14T15:44:46.096Z,6.87
2019-04-14T15:47:17.830Z,6.37
2019-04-14T15:49:48.833Z,6.30
2019-04-14T15:52:20.082Z,6.90
2019-04-14T15:54:51.008Z,5.83
2019-04-14T15:57:30.302Z,6.70
2019-04-14T16:00:11.735Z,5.50
2019-04-14T16:02:45.990Z,6.90
2019-04-14T16:05:24.679Z,6.40
2019-04-14T16:07:57.300Z,6.47
2019-04-14T16:10:46.226Z,5.40
2019-04-14T16:13:34.407Z,6.27
2019-04-14T16:16:23.888Z,5.93
2019-04-14T16:18:56.457Z,6.10
2019-04-14T16:21:27.593Z,5.93
2019-04-14T16:23:58.973Z,6.50
2019-04-14T16:26:38.010Z,5.83
2019-04-14T16:29:10.608Z,5.83
2019-04-14T16:32:00.254Z,6.37
2019-04-14T16:34:45.355Z,6.67
2019-04-14T16:37:16.747Z,6.30
2019-04-14T16:39:47.887Z,6.87
2019-04-14T16:42:19.161Z,6.77
2019-04-14T16:44:50.107Z,7.00
2019-04-14T16:47:21.181Z,8.17
2019-04-14T16:49:52.236Z,7.43
2019-04-14T16:52:33.311Z,7.10
2019-04-14T16:55:10.198Z,7.13
2019-04-14T16:57:58.841Z,6.37
2019-04-14T17:00:31.468Z,6.63
2019-04-14T17:03:02.813Z,7.33
2019-04-14T17:05:34.958Z,6.60
2019-04-14T17:08:05.454Z,6.93
2019-04-14T17:10:36.569Z,6.70
2019-04-14T17:13:10.861Z,6.90
2019-04-14T17:15:46.979Z,6.57
2019-04-14T17:18:28.607Z,6.90
2019-04-14T17:21:07.079Z,7.30
2019-04-14T17:23:56.247Z,8.03
2019-04-14T17:26:45.402Z,7.40
2019-04-14T17:29:17.993Z,7.10
2019-04-14T17:32:07.147Z,6.93
2019-04-14T17:34:54.929Z,6.83
2019-04-14T17:37:42.880Z,8.47
2019-04-14T17:40:15.665Z,7.87
2019-04-14T17:42:48.478Z,8.50
2019-04-14T17:45:24.028Z,7.73
2019-04-14T17:47:56.801Z,7.23
2019-04-14T17:50:47.529Z,7.37
2019-04-14T17:53:20.606Z,7.30
2019-04-14T17:56:01.203Z,7.37
2019-04-14T17:58:42.568Z,6.93
2019-04-14T18:01:33.309Z,6.70
2019-04-14T18:04:09.420Z,8.43
2019-04-14T18:06:42.099Z,7.07
2019-04-14T18:09:20.360Z,8.27
2019-04-14T18:12:08.354Z,7.70
2019-04-14T18:14:53.143Z,8.17
2019-04-14T18:17:25.763Z,7.13
2019-04-14T18:20:07.271Z,8.03
2019-04-14T18:22:38.462Z,8.20
2019-04-14T18:25:09.998Z,8.27
2019-04-14T18:27:45.081Z,7.47
2019-04-14T18:30:20.657Z,6.73
2019-04-14T18:32:53.249Z,7.00
2019-04-14T18:35:28.134Z,7.67
2019-04-14T18:38:16.488Z,7.90
2019-04-14T18:41:04.491Z,8.43
2019-04-14T18:43:46.558Z,7.43
2019-04-14T18:46:21.327Z,7.00
2019-04-14T18:48:56.934Z,8.83
2019-04-14T18:51:35.902Z,9.20
2019-04-14T18:54:08.804Z,7.60
2019-04-14T18:56:53.593Z,7.93
2019-04-14T18:59:35.418Z,7.57
2019-04-14T19:02:06.614Z,7.17
2019-04-14T19:04:37.856Z,7.37
2019-04-14T19:07:08.894Z,7.77
2019-04-14T19:09:40.148Z,7.37
2019-04-14T19:12:21.799Z,7.40
2019-04-14T19:15:10.768Z,7.87
2019-04-14T19:17:43.306Z,9.40
2019-04-14T19:20:16.262Z,7.60
2019-04-14T19:22:47.338Z,8.10
2019-04-14T19:25:18.544Z,7.43
2019-04-14T19:27:51.501Z,7.83
2019-04-14T19:30:24.793Z,7.67
2019-04-14T19:32:55.951Z,7.70
2019-04-14T19:35:26.989Z,7.37
2019-04-14T19:37:58.508Z,6.90
2019-04-14T19:40:29.496Z,7.00
2019-04-14T19:43:00.723Z,7.47
2019-04-14T19:45:31.706Z,7.70
2019-04-14T19:48:03.494Z,7.90
2019-04-14T19:50:34.525Z,7.37
2019-04-14T19:53:05.803Z,8.20
2019-04-14T19:55:37.316Z,8.00
2019-04-14T19:58:08.945Z,8.27
2019-04-14T20:00:40.060Z,8.30
2019-04-14T20:03:11.490Z,7.97
2019-04-14T20:05:42.404Z,8.20
2019-04-14T20:08:13.621Z,8.40
2019-04-14T20:10:44.637Z,8.77
2019-04-14T20:13:14.930Z,7.70
2019-04-14T20:16:00.201Z,7.47
2019-04-14T20:18:32.848Z,8.67
2019-04-14T20:21:22.353Z,7.87
2019-04-14T20:24:03.996Z,8.10
2019-04-14T20:26:53.610Z,8.10
2019-04-14T20:29:26.202Z,7.17
2019-04-14T20:31:59.143Z,8.07
2019-04-14T20:34:30.040Z,8.30
2019-04-14T20:37:01.365Z,7.70
2019-04-14T20:39:33.005Z,8.27
2019-04-14T20:42:05.389Z,7.77
2019-04-14T20:44:36.534Z,7.77
2019-04-14T20:47:09.023Z,8.33
2019-04-14T20:49:40.062Z,8.13
2019-04-14T20:52:11.409Z,8.57
2019-04-14T20:54:42.393Z,8.30
2019-04-14T20:57:13.697Z,8.63
2019-04-14T20:59:44.929Z,8.93
2019-04-14T21:02:31.852Z,7.97
2019-04-14T21:05:20.901Z,8.23
2019-04-14T21:08:09.159Z,8.07
2019-04-14T21:10:44.921Z,8.33
2019-04-14T21:13:19.665Z,8.53
2019-04-14T21:16:12.148Z,8.97
2019-04-14T21:18:37.403Z,8.30
2019-04-14T21:21:10.270Z,8.20
2019-04-14T21:23:45.614Z,8.67
2019-04-14T21:26:29.918Z,8.33
2019-04-14T21:29:02.575Z,8.13
2019-04-14T21:31:35.358Z,8.93
2019-04-14T21:34:16.946Z,8.90
2019-04-14T21:36:49.659Z,9.00
2019-04-14T21:39:40.779Z,9.20
2019-04-14T21:42:12.343Z,8.87
2019-04-14T21:44:43.376Z,9.23
2019-04-14T21:47:14.792Z,9.40
2019-04-14T21:49:45.690Z,9.17
2019-04-14T21:52:24.555Z,9.43
2019-04-14T21:54:55.657Z,11.27
2019-04-14T21:57:28.556Z,10.40
2019-04-14T22:00:13.001Z,10.03
2019-04-14T22:03:02.176Z,9.67
2019-04-14T22:05:44.153Z,9.93
2019-04-14T22:08:17.180Z,10.37
2019-04-14T22:10:55.919Z,10.77
2019-04-14T22:13:27.219Z,10.40
2019-04-14T22:15:58.216Z,9.30
2019-04-14T22:18:28.462Z,11.10
2019-04-14T22:20:59.599Z,10.23
2019-04-14T22:23:30.579Z,10.63
2019-04-14T22:26:01.716Z,10.87
2019-04-14T22:28:32.749Z,11.17
2019-04-14T22:31:04.055Z,10.33
2019-04-14T22:33:35.102Z,10.93
2019-04-14T22:36:06.432Z,10.10
2019-04-14T22:38:37.529Z,11.47
2019-04-14T22:41:08.829Z,11.33
2019-04-14T22:43:39.816Z,11.13
2019-04-14T22:46:11.417Z,12.00
2019-04-14T22:48:42.473Z,11.43
2019-04-14T22:51:12.571Z,11.50
2019-04-14T22:53:43.892Z,11.80
2019-04-14T22:56:14.966Z,11.20
2019-04-14T22:58:46.355Z,11.23
2019-04-14T23:01:24.177Z,12.00
2019-04-14T23:03:56.984Z,13.07
2019-04-14T23:06:45.976Z,12.03
2019-04-14T23:09:24.509Z,12.40
2019-04-14T23:12:09.211Z,12.23
2019-04-14T23:14:57.847Z,12.27
2019-04-14T23:17:30.542Z,12.03
2019-04-14T23:20:23.111Z,12.97
2019-04-14T23:23:04.833Z,12.20
2019-04-14T23:25:35.987Z,11.97
2019-04-14T23:28:07.039Z,13.03
2019-04-14T23:30:38.366Z,12.37
2019-04-14T23:33:09.281Z,13.53
2019-04-14T23:35:40.413Z,13.43
2019-04-14T23:38:11.414Z,13.83
2019-04-14T23:40:42.634Z,12.53
2019-04-14T23:43:13.782Z,13.43
2019-04-14T23:45:43.920Z,13.63
2019-04-14T23:48:15.219Z,13.93
2019-04-14T23:50:46.366Z,12.70
2019-04-14T23:53:17.747Z,12.93
2019-04-14T23:55:50.132Z,12.70
2019-04-14T23:58:21.485Z,13.63
